Time;durP1;ratioP1;P1;durP2;ratioP2;P2;SDS_P1;SDS_P2;PMS_P1;PMS_P2;Temp;Humidity;BMP_temperature;BMP_pressure;BME280_temperature;BME280_humidity;BME280_pressure;Samples;Min_cycle;Max_cycle;Signal;HPM_P1;HPM_P2
2023/03/18 06:58:23;;;;;;;0.20;0.10;;;;;;;;;;5076640;27;20411;-81
2023/03/18 07:00:49;;;;;;;0.20;0.10;;;;;;;;;;5064119;28;20040;-81
2023/03/18 07:03:15;;;;;;;0.20;0.10;;;;;;;;;;5053547;28;20106;-81
2023/03/18 07:05:42;;;;;;;0.20;0.10;;;;;;;;;;5051843;28;20045;-81
2023/03/18 07:08:08;;;;;;;0.20;0.10;;;;;;;;;;5048339;28;20037;-82
2023/03/18 07:10:34;;;;;;;0.20;0.10;;;;;;;;;;5052861;28;20094;-82
2023/03/18 07:13:00;;;;;;;0.30;0.30;;;;;;;;;;5037794;28;20041;-81
2023/03/18 07:15:27;;;;;;;0.20;0.00;;;;;;;;;;5046277;28;20049;-81
2023/03/18 07:17:53;;;;;;;0.20;0.10;;;;;;;;;;5046163;28;20048;-83
2023/03/18 07:20:21;;;;;;;0.20;0.10;;;;;;;;;;5025582;28;20032;-81
2023/03/18 07:22:47;;;;;;;0.20;0.00;;;;;;;;;;5044523;28;20052;-81
2023/03/18 07:25:13;;;;;;;0.20;0.10;;;;;;;;;;5042982;28;20102;-79
2023/03/18 07:27:41;;;;;;;0.20;0.08;;;;;;;;;;5046057;28;20063;-80
2023/03/18 07:30:17;;;;;;;0.50;0.43;;;;;;;;;;5045277;28;20075;-80
2023/03/18 07:32:44;;;;;;;0.20;0.10;;;;;;;;;;5041347;28;20315;-82
2023/03/18 07:35:14;;;;;;;0.20;0.10;;;;;;;;;;5043405;28;20049;-82
2023/03/18 07:37:40;;;;;;;0.20;0.10;;;;;;;;;;5039822;28;20045;-81
2023/03/18 07:40:07;;;;;;;0.20;0.20;;;;;;;;;;5031858;28;20485;-81
2023/03/18 07:42:33;;;;;;;0.20;0.10;;;;;;;;;;5042742;28;20127;-81
2023/03/18 07:45:00;;;;;;;0.20;0.10;;;;;;;;;;5023217;28;20162;-80
2023/03/18 07:47:26;;;;;;;0.20;0.10;;;;;;;;;;5041069;28;20537;-81
2023/03/18 07:49:52;;;;;;;0.25;0.15;;;;;;;;;;5040188;28;20047;-82
2023/03/18 07:52:18;;;;;;;0.20;0.10;;;;;;;;;;5047327;28;20064;-82
2023/03/18 07:54:44;;;;;;;0.20;0.10;;;;;;;;;;5022633;28;20033;-83
2023/03/18 07:57:10;;;;;;;0.20;0.20;;;;;;;;;;5040385;28;20637;-82
2023/03/18 07:59:36;;;;;;;0.20;0.10;;;;;;;;;;5039970;28;20045;-82
2023/03/18 08:02:03;;;;;;;0.43;0.15;;;;;;;;;;5043946;28;20037;-82
2023/03/18 08:04:30;;;;;;;0.20;0.10;;;;;;;;;;5039856;28;22033;-82
2023/03/18 08:06:57;;;;;;;0.20;0.20;;;;;;;;;;5042841;28;20067;-81
2023/03/18 08:09:23;;;;;;;0.50;0.30;;;;;;;;;;5033957;28;20083;-82
2023/03/18 08:11:49;;;;;;;0.20;0.10;;;;;;;;;;5013012;28;20041;-81
2023/03/18 08:14:16;;;;;;;1.27;0.63;;;;;;;;;;5034813;28;20053;-81
2023/03/18 08:16:42;;;;;;;0.20;0.10;;;;;;;;;;5016766;28;20045;-81
2023/03/18 08:19:08;;;;;;;0.20;0.10;;;;;;;;;;5016663;28;20437;-81
2023/03/18 08:21:34;;;;;;;0.30;0.20;;;;;;;;;;5015427;28;20134;-82
2023/03/18 08:24:00;;;;;;;0.20;0.10;;;;;;;;;;5022091;28;20042;-81
2023/03/18 08:26:26;;;;;;;0.20;0.10;;;;;;;;;;5039581;28;20064;-81
2023/03/18 08:28:52;;;;;;;0.20;0.10;;;;;;;;;;5015517;28;20049;-84
2023/03/18 08:31:18;;;;;;;0.20;0.20;;;;;;;;;;5038840;28;20033;-81
2023/03/18 08:33:45;;;;;;;0.20;0.10;;;;;;;;;;5034424;28;20328;-80
2023/03/18 08:36:11;;;;;;;0.40;0.38;;;;;;;;;;5024933;28;20512;-81
2023/03/18 08:38:38;;;;;;;0.40;0.40;;;;;;;;;;5030892;28;20036;-81
2023/03/18 08:41:04;;;;;;;0.40;0.30;;;;;;;;;;5013109;28;20425;-83
2023/03/18 08:43:30;;;;;;;0.20;0.10;;;;;;;;;;5035110;28;20037;-83
2023/03/18 08:45:56;;;;;;;0.20;0.10;;;;;;;;;;5019114;28;20443;-81
2023/03/18 08:48:23;;;;;;;0.20;0.10;;;;;;;;;;5038329;28;20127;-82
2023/03/18 08:50:49;;;;;;;0.32;0.32;;;;;;;;;;5041209;28;20049;-82
2023/03/18 08:53:15;;;;;;;0.20;0.10;;;;;;;;;;5046692;28;20461;-82
2023/03/18 08:55:41;;;;;;;0.20;0.10;;;;;;;;;;5048407;28;20036;-82
2023/03/18 08:58:08;;;;;;;0.32;0.28;;;;;;;;;;5042155;28;20119;-81
2023/03/18 09:00:35;;;;;;;1.65;0.40;;;;;;;;;;5040703;28;20680;-82
2023/03/18 09:03:02;;;;;;;0.43;0.43;;;;;;;;;;5040190;28;20055;-82
2023/03/18 09:05:29;;;;;;;0.20;0.10;;;;;;;;;;5041590;28;20044;-81
2023/03/18 09:07:55;;;;;;;0.20;0.20;;;;;;;;;;5040280;28;20045;-82
2023/03/18 09:10:21;;;;;;;0.45;0.30;;;;;;;;;;5044299;28;20041;-82
2023/03/18 09:12:48;;;;;;;0.85;0.60;;;;;;;;;;5021622;28;20502;-82
2023/03/18 09:15:14;;;;;;;0.95;0.25;;;;;;;;;;5019038;28;20045;-82
2023/03/18 09:17:41;;;;;;;0.40;0.40;;;;;;;;;;5033570;28;20429;-82
2023/03/18 09:20:09;;;;;;;0.50;0.50;;;;;;;;;;5035215;28;20120;-82
2023/03/18 09:22:35;;;;;;;0.20;0.10;;;;;;;;;;5041257;28;20033;-80
2023/03/18 09:25:01;;;;;;;0.20;0.10;;;;;;;;;;5040228;28;20064;-82
2023/03/18 09:27:27;;;;;;;0.22;0.20;;;;;;;;;;5033744;28;20110;-80
2023/03/18 09:29:53;;;;;;;0.65;0.60;;;;;;;;;;5030709;28;20037;-81
2023/03/18 09:32:19;;;;;;;0.20;0.20;;;;;;;;;;5031056;28;20429;-82
2023/03/18 09:34:45;;;;;;;0.90;0.80;;;;;;;;;;5034919;28;20076;-83
2023/03/18 09:37:13;;;;;;;0.20;0.10;;;;;;;;;;5018676;28;20037;-82
2023/03/18 09:39:40;;;;;;;0.20;0.10;;;;;;;;;;5033408;28;20093;-82
2023/03/18 09:42:15;;;;;;;0.20;0.10;;;;;;;;;;5032443;28;20041;-81
2023/03/18 09:44:42;;;;;;;0.20;0.10;;;;;;;;;;5018346;28;20033;-81
2023/03/18 09:47:30;;;;;;;0.40;0.40;;;;;;;;;;5019740;28;20159;-81
2023/03/18 09:50:05;;;;;;;0.20;0.10;;;;;;;;;;5024480;28;20503;-81
2023/03/18 09:52:35;;;;;;;0.32;0.20;;;;;;;;;;5035398;28;20037;-82
2023/03/18 09:55:05;;;;;;;0.57;0.10;;;;;;;;;;5039306;28;20051;-83
2023/03/18 09:57:43;;;;;;;0.80;0.80;;;;;;;;;;5015879;28;20172;-80
2023/03/18 10:00:19;;;;;;;0.35;0.17;;;;;;;;;;5014556;28;20106;-81
2023/03/18 10:02:54;;;;;;;0.38;0.25;;;;;;;;;;5007550;28;20049;-78
2023/03/18 10:05:27;;;;;;;0.63;0.38;;;;;;;;;;5030135;28;20029;-77
2023/03/18 10:07:55;;;;;;;0.73;0.40;;;;;;;;;;5015049;28;20064;-78
2023/03/18 10:10:29;;;;;;;2.30;1.45;;;;;;;;;;5023755;28;20752;-80
2023/03/18 10:13:16;;;;;;;1.20;0.55;;;;;;;;;;5020063;28;20076;-79
2023/03/18 10:15:44;;;;;;;0.30;0.30;;;;;;;;;;5010214;28;20255;-78
2023/03/18 10:18:12;;;;;;;0.30;0.20;;;;;;;;;;5012639;28;20064;-80
2023/03/18 10:20:57;;;;;;;0.85;0.32;;;;;;;;;;5029942;28;20727;-79
2023/03/18 10:23:36;;;;;;;1.23;1.13;;;;;;;;;;5022777;28;20041;-80
2023/03/18 10:26:10;;;;;;;0.47;0.47;;;;;;;;;;5010167;28;20113;-83
2023/03/18 10:28:41;;;;;;;0.38;0.38;;;;;;;;;;5007025;28;20055;-81
2023/03/18 10:31:07;;;;;;;2.20;1.38;;;;;;;;;;5028590;28;20037;-81
2023/03/18 10:33:40;;;;;;;0.45;0.40;;;;;;;;;;5018455;22;20376;-75
2023/03/18 10:36:18;;;;;;;0.32;0.32;;;;;;;;;;4959657;28;20738;-76
2023/03/18 10:38:46;;;;;;;0.35;0.35;;;;;;;;;;4969322;28;20051;-75
2023/03/18 10:41:21;;;;;;;1.45;1.10;;;;;;;;;;4969319;28;20043;-75
2023/03/18 10:43:49;;;;;;;0.70;0.57;;;;;;;;;;4966484;28;20042;-75
2023/03/18 10:46:16;;;;;;;0.95;0.70;;;;;;;;;;4964644;28;20038;-75
2023/03/18 10:48:44;;;;;;;1.23;1.05;;;;;;;;;;4968378;28;20076;-75
2023/03/18 10:51:20;;;;;;;1.17;0.65;;;;;;;;;;4966545;28;20125;-75
2023/03/18 10:53:53;;;;;;;1.00;0.90;;;;;;;;;;4972895;28;20039;-76
2023/03/18 10:56:19;;;;;;;0.57;0.50;;;;;;;;;;4969570;28;20084;-75
2023/03/18 10:58:46;;;;;;;1.00;0.98;;;;;;;;;;4963788;28;20095;-77
2023/03/18 11:01:15;;;;;;;0.20;0.17;;;;;;;;;;4966292;28;20074;-76
2023/03/18 11:04:00;;;;;;;0.20;0.20;;;;;;;;;;4975736;28;20035;-76
2023/03/18 11:06:27;;;;;;;0.28;0.20;;;;;;;;;;4969118;28;20049;-76
2023/03/18 11:09:14;;;;;;;0.25;0.15;;;;;;;;;;4967911;28;20043;-76
2023/03/18 11:11:42;;;;;;;0.35;0.35;;;;;;;;;;4966520;28;20070;-76
2023/03/18 11:14:12;;;;;;;0.25;0.25;;;;;;;;;;4963760;28;20046;-75
2023/03/18 11:16:41;;;;;;;0.35;0.20;;;;;;;;;;4970244;28;20030;-75
2023/03/18 11:19:28;;;;;;;0.90;0.75;;;;;;;;;;4967815;28;20046;-75
2023/03/18 11:22:10;;;;;;;0.20;0.10;;;;;;;;;;4953368;28;20987;-74
2023/03/18 11:24:42;;;;;;;0.63;0.40;;;;;;;;;;4965070;28;20046;-75
2023/03/18 11:27:14;;;;;;;0.22;0.13;;;;;;;;;;4964503;28;20443;-76
2023/03/18 11:29:42;;;;;;;0.30;0.20;;;;;;;;;;4966835;28;20374;-77
2023/03/18 11:32:23;;;;;;;3.15;0.80;;;;;;;;;;4950711;28;20062;-76
2023/03/18 11:34:54;;;;;;;0.30;0.15;;;;;;;;;;4970099;28;20122;-76
2023/03/18 11:37:20;;;;;;;0.20;0.10;;;;;;;;;;4965506;28;20038;-75
2023/03/18 11:39:47;;;;;;;0.20;0.20;;;;;;;;;;4973136;28;20043;-75
2023/03/18 11:42:18;;;;;;;0.40;0.20;;;;;;;;;;4971409;28;20136;-76
2023/03/18 11:44:45;;;;;;;0.20;0.10;;;;;;;;;;4971662;28;20662;-77
2023/03/18 11:47:18;;;;;;;0.20;0.10;;;;;;;;;;4975947;28;20486;-75
2023/03/18 11:49:44;;;;;;;0.20;0.20;;;;;;;;;;4968606;28;20054;-76
2023/03/18 11:52:17;;;;;;;0.20;0.10;;;;;;;;;;4971429;28;20062;-76
2023/03/18 11:54:55;;;;;;;0.30;0.20;;;;;;;;;;4958976;28;20403;-77
2023/03/18 11:57:21;;;;;;;0.20;0.20;;;;;;;;;;4953681;28;20060;-76
2023/03/18 11:59:59;;;;;;;0.30;0.30;;;;;;;;;;4972452;28;20511;-75
2023/03/18 12:02:41;;;;;;;0.20;0.20;;;;;;;;;;4977466;28;20196;-76
2023/03/18 12:05:27;;;;;;;0.33;0.23;;;;;;;;;;4964810;28;20038;-76
2023/03/18 12:08:00;;;;;;;0.30;0.20;;;;;;;;;;4954248;28;20070;-76
2023/03/18 12:10:32;;;;;;;0.20;0.10;;;;;;;;;;4944754;28;20582;-76
2023/03/18 12:13:10;;;;;;;0.20;0.17;;;;;;;;;;4958221;28;20513;-76
2023/03/18 12:15:47;;;;;;;0.43;0.25;;;;;;;;;;4973324;28;20121;-76
2023/03/18 12:18:13;;;;;;;0.85;0.30;;;;;;;;;;4973641;28;20038;-75
2023/03/18 12:20:46;;;;;;;0.20;0.10;;;;;;;;;;4965148;28;20038;-75
2023/03/18 12:23:31;;;;;;;0.20;0.10;;;;;;;;;;4972667;28;20388;-77
2023/03/18 12:26:02;;;;;;;0.20;0.20;;;;;;;;;;4968289;28;20042;-77
2023/03/18 12:28:35;;;;;;;0.20;0.10;;;;;;;;;;4974954;28;20034;-77
2023/03/18 12:31:25;;;;;;;2.30;1.17;;;;;;;;;;4954392;28;20042;-76
2023/03/18 12:33:55;;;;;;;0.28;0.22;;;;;;;;;;4970242;28;20058;-76
2023/03/18 12:36:24;;;;;;;0.20;0.10;;;;;;;;;;4971984;28;20437;-76
2023/03/18 12:39:16;;;;;;;0.30;0.20;;;;;;;;;;4973929;28;20339;-76
2023/03/18 12:41:51;;;;;;;0.20;0.10;;;;;;;;;;4967391;28;20511;-77
2023/03/18 12:44:25;;;;;;;0.85;0.40;;;;;;;;;;4969948;28;20039;-75
2023/03/18 12:47:05;;;;;;;0.55;0.15;;;;;;;;;;4967514;28;20064;-76
2023/03/18 12:49:34;;;;;;;0.55;0.40;;;;;;;;;;4941292;28;20055;-75
2023/03/18 12:52:00;;;;;;;0.20;0.10;;;;;;;;;;4971345;28;20061;-76
2023/03/18 12:54:29;;;;;;;0.20;0.10;;;;;;;;;;4944998;28;20573;-77
2023/03/18 12:57:10;;;;;;;0.22;0.10;;;;;;;;;;4973633;28;20121;-76
2023/03/18 12:59:45;;;;;;;0.20;0.10;;;;;;;;;;4976852;28;20125;-76
2023/03/18 13:02:12;;;;;;;0.20;0.10;;;;;;;;;;4973446;28;20046;-77
2023/03/18 13:04:40;;;;;;;0.20;0.10;;;;;;;;;;4971098;28;20085;-76
2023/03/18 13:07:16;;;;;;;0.20;0.10;;;;;;;;;;4957478;28;20056;-76
2023/03/18 13:09:45;;;;;;;0.20;0.10;;;;;;;;;;4970305;28;20058;-75
2023/03/18 13:12:23;;;;;;;0.50;0.30;;;;;;;;;;4972240;28;20054;-77
2023/03/18 13:15:18;;;;;;;0.68;0.30;;;;;;;;;;4969442;28;20543;-76
2023/03/18 13:17:45;;;;;;;0.30;0.13;;;;;;;;;;4939342;28;20726;-76
2023/03/18 13:20:17;;;;;;;0.63;0.63;;;;;;;;;;4977418;28;20053;-76
2023/03/18 13:22:44;;;;;;;0.20;0.10;;;;;;;;;;4971853;28;20041;-76
2023/03/18 13:25:29;;;;;;;1.65;0.35;;;;;;;;;;4951610;28;20046;-75
2023/03/18 13:27:58;;;;;;;0.20;0.10;;;;;;;;;;4973505;28;20073;-77
2023/03/18 13:30:31;;;;;;;0.20;0.10;;;;;;;;;;4954724;28;20039;-76
2023/03/18 13:33:26;;;;;;;0.30;0.30;;;;;;;;;;4979630;28;20404;-77
2023/03/18 13:35:52;;;;;;;0.20;0.10;;;;;;;;;;4963780;28;20058;-77
2023/03/18 13:38:22;;;;;;;0.22;0.20;;;;;;;;;;4972690;28;20112;-76
2023/03/18 13:41:07;;;;;;;0.20;0.03;;;;;;;;;;4975289;28;20062;-77
2023/03/18 13:43:33;;;;;;;0.20;0.00;;;;;;;;;;4975289;28;20034;-77
2023/03/18 13:45:59;;;;;;;0.20;0.10;;;;;;;;;;4956284;28;20046;-77
2023/03/18 13:48:33;;;;;;;0.20;0.13;;;;;;;;;;4975111;28;21641;-75
2023/03/18 13:50:59;;;;;;;0.20;0.10;;;;;;;;;;4972436;28;20046;-75
2023/03/18 13:53:25;;;;;;;1.20;0.20;;;;;;;;;;4973639;28;20038;-76
2023/03/18 13:55:52;;;;;;;0.20;0.00;;;;;;;;;;4972053;28;20042;-75
2023/03/18 13:58:18;;;;;;;0.20;0.10;;;;;;;;;;4973833;28;20134;-76
2023/03/18 14:01:05;;;;;;;0.20;0.10;;;;;;;;;;4970858;28;20054;-76
2023/03/18 14:03:51;;;;;;;1.38;0.38;;;;;;;;;;4950115;28;20047;-76
2023/03/18 14:06:20;;;;;;;0.20;0.00;;;;;;;;;;4970257;28;20396;-73
2023/03/18 14:08:48;;;;;;;0.20;0.20;;;;;;;;;;4967320;28;20039;-75
2023/03/18 14:11:21;;;;;;;0.52;0.25;;;;;;;;;;4967726;28;20130;-75
2023/03/18 14:13:47;;;;;;;0.20;0.10;;;;;;;;;;4964816;28;20046;-75
2023/03/18 14:16:19;;;;;;;0.20;0.00;;;;;;;;;;4967269;28;20046;-74
2023/03/18 14:18:56;;;;;;;0.20;0.10;;;;;;;;;;4977871;28;20047;-76
2023/03/18 14:21:27;;;;;;;0.20;0.10;;;;;;;;;;4973010;28;20471;-76
2023/03/18 14:24:03;;;;;;;0.20;0.20;;;;;;;;;;4973665;28;20509;-77
2023/03/18 14:26:30;;;;;;;0.20;0.10;;;;;;;;;;4977198;28;20042;-76
2023/03/18 14:29:05;;;;;;;0.20;0.10;;;;;;;;;;4984874;28;20042;-75
2023/03/18 14:31:31;;;;;;;0.20;0.13;;;;;;;;;;4972379;28;20070;-76
2023/03/18 14:34:02;;;;;;;0.20;0.10;;;;;;;;;;4969883;28;20073;-76
2023/03/18 14:36:44;;;;;;;0.20;0.10;;;;;;;;;;4974292;28;20039;-75
2023/03/18 14:39:13;;;;;;;0.20;0.05;;;;;;;;;;4972912;28;20074;-76
2023/03/18 14:41:43;;;;;;;0.20;0.10;;;;;;;;;;4971142;28;20038;-76
2023/03/18 14:44:16;;;;;;;0.20;0.00;;;;;;;;;;4971001;28;20077;-76
2023/03/18 14:46:42;;;;;;;;;;;;;;;;;;4973503;28;20124;-77
2023/03/18 14:49:28;;;;;;;0.20;0.00;;;;;;;;;;4969453;28;19925;-76
2023/03/18 14:51:54;;;;;;;0.20;0.03;;;;;;;;;;4957460;28;20096;-76
2023/03/18 14:54:23;;;;;;;0.43;0.30;;;;;;;;;;4966314;28;20050;-76
2023/03/18 14:56:53;;;;;;;0.20;0.00;;;;;;;;;;4972724;28;20065;-76
2023/03/18 14:59:23;;;;;;;0.20;0.10;;;;;;;;;;4970193;28;20255;-75
2023/03/18 15:01:49;;;;;;;0.20;0.10;;;;;;;;;;4973180;28;20046;-76
2023/03/18 15:04:26;;;;;;;0.30;0.30;;;;;;;;;;4971484;28;20268;-76
2023/03/18 15:06:53;;;;;;;0.20;0.10;;;;;;;;;;4970140;28;20074;-76
2023/03/18 15:09:25;;;;;;;0.20;0.10;;;;;;;;;;4955462;28;20425;-76
2023/03/18 15:11:52;;;;;;;0.20;0.10;;;;;;;;;;4986153;28;20053;-76
2023/03/18 15:14:25;;;;;;;0.20;0.10;;;;;;;;;;4970606;28;20130;-76
2023/03/18 15:16:51;;;;;;;;;;;;;;;;;;4954386;28;20511;-76
2023/03/18 15:19:18;;;;;;;0.20;0.00;;;;;;;;;;4971253;28;19937;-76
2023/03/18 15:21:44;;;;;;;0.20;0.08;;;;;;;;;;4974966;28;20096;-76
2023/03/18 15:24:14;;;;;;;0.20;0.08;;;;;;;;;;4970631;28;20038;-75
2023/03/18 15:26:41;;;;;;;0.30;0.10;;;;;;;;;;4968695;28;20042;-76
2023/03/18 15:29:25;;;;;;;0.20;0.10;;;;;;;;;;4966510;28;20046;-76
2023/03/18 15:31:52;;;;;;;0.20;0.10;;;;;;;;;;4969643;28;20158;-76
2023/03/18 15:34:22;;;;;;;0.20;0.00;;;;;;;;;;4968574;28;20042;-76
2023/03/18 15:36:53;;;;;;;0.20;0.10;;;;;;;;;;4966746;28;20673;-76
2023/03/18 15:39:20;;;;;;;0.22;0.08;;;;;;;;;;4970005;28;20418;-76
2023/03/18 15:41:49;;;;;;;0.20;0.10;;;;;;;;;;4971304;28;20137;-76
2023/03/18 15:44:20;;;;;;;0.20;0.10;;;;;;;;;;4974474;28;20042;-77
2023/03/18 15:46:46;;;;;;;0.20;0.10;;;;;;;;;;4973100;28;20042;-76
2023/03/18 15:49:12;;;;;;;0.20;0.10;;;;;;;;;;4973112;28;20077;-76
2023/03/18 15:51:48;;;;;;;0.20;0.00;;;;;;;;;;4973707;28;20074;-76
2023/03/18 15:54:16;;;;;;;0.20;0.10;;;;;;;;;;4962948;28;20464;-76
2023/03/18 15:56:43;;;;;;;0.30;0.10;;;;;;;;;;4971669;28;20237;-76
2023/03/18 15:59:14;;;;;;;0.20;0.10;;;;;;;;;;4963833;28;20043;-76
2023/03/18 16:01:41;;;;;;;0.20;0.10;;;;;;;;;;4972281;28;20125;-76
2023/03/18 16:04:09;;;;;;;0.20;0.10;;;;;;;;;;4948553;28;20042;-75
2023/03/18 16:06:37;;;;;;;0.20;0.20;;;;;;;;;;4965015;28;20403;-76
2023/03/18 16:09:13;;;;;;;0.20;0.00;;;;;;;;;;4952333;28;20042;-75
2023/03/18 16:11:39;;;;;;;0.20;0.10;;;;;;;;;;4966276;28;20039;-76
2023/03/18 16:14:05;;;;;;;0.20;0.10;;;;;;;;;;4970837;28;20434;-76
2023/03/18 16:16:32;;;;;;;0.20;0.10;;;;;;;;;;4969673;28;21071;-76
2023/03/18 16:18:58;;;;;;;0.20;0.10;;;;;;;;;;4966854;28;20042;-76
2023/03/18 16:21:25;;;;;;;0.20;0.00;;;;;;;;;;4978297;28;20030;-76
2023/03/18 16:23:52;;;;;;;0.20;0.00;;;;;;;;;;4975946;28;20042;-75
2023/03/18 16:26:18;;;;;;;0.20;0.10;;;;;;;;;;4969659;28;20055;-75
2023/03/18 16:28:44;;;;;;;0.20;0.10;;;;;;;;;;4968227;28;20048;-77
2023/03/18 16:31:11;;;;;;;0.47;0.47;;;;;;;;;;4980975;28;20061;-75
2023/03/18 16:33:38;;;;;;;0.20;0.05;;;;;;;;;;4999104;23;20026;-83
2023/03/18 16:36:05;;;;;;;0.20;0.10;;;;;;;;;;4987009;28;20038;-79
2023/03/18 16:38:33;;;;;;;0.20;0.10;;;;;;;;;;4999876;28;20034;-81
2023/03/18 16:40:59;;;;;;;0.20;0.00;;;;;;;;;;4993012;28;20037;-79
2023/03/18 16:43:30;;;;;;;0.20;0.00;;;;;;;;;;4999150;28;20065;-80
2023/03/18 16:46:00;;;;;;;0.28;0.20;;;;;;;;;;5000484;28;20602;-81
2023/03/18 16:48:27;;;;;;;0.20;0.00;;;;;;;;;;4985058;28;20128;-80
2023/03/18 16:50:53;;;;;;;0.20;0.00;;;;;;;;;;5001109;28;20133;-80
2023/03/18 16:53:25;;;;;;;0.20;0.00;;;;;;;;;;5004048;28;21022;-80
2023/03/18 16:55:55;;;;;;;0.20;0.10;;;;;;;;;;4987206;28;20104;-81
2023/03/18 16:58:25;;;;;;;0.20;0.00;;;;;;;;;;5003610;28;20577;-79
2023/03/18 17:00:51;;;;;;;0.20;0.10;;;;;;;;;;5004796;28;20054;-79
2023/03/18 17:03:18;;;;;;;0.20;0.10;;;;;;;;;;4991273;28;20033;-79
2023/03/18 17:05:45;;;;;;;0.20;0.10;;;;;;;;;;5004122;28;20034;-79
2023/03/18 17:08:11;;;;;;;0.20;0.10;;;;;;;;;;4997144;28;20100;-79
2023/03/18 17:10:38;;;;;;;0.20;0.00;;;;;;;;;;5002906;28;20443;-78
2023/03/18 17:13:06;;;;;;;0.20;0.00;;;;;;;;;;4988438;28;20084;-78
2023/03/18 17:15:35;;;;;;;0.20;0.00;;;;;;;;;;5001015;28;20968;-79
2023/03/18 17:18:02;;;;;;;0.20;0.00;;;;;;;;;;5002501;28;20042;-80
2023/03/18 17:20:30;;;;;;;0.20;0.10;;;;;;;;;;4970348;28;20503;-78
2023/03/18 17:22:56;;;;;;;0.30;0.15;;;;;;;;;;4994723;28;20072;-78
2023/03/18 17:25:24;;;;;;;0.20;0.10;;;;;;;;;;4996045;28;20034;-77
2023/03/18 17:27:54;;;;;;;0.20;0.10;;;;;;;;;;4970222;28;20042;-78
2023/03/18 17:30:22;;;;;;;0.20;0.00;;;;;;;;;;4997159;28;20038;-78
2023/03/18 17:32:49;;;;;;;0.20;0.10;;;;;;;;;;4998902;28;20705;-77
2023/03/18 17:35:19;;;;;;;0.20;0.00;;;;;;;;;;5005413;28;20176;-78
2023/03/18 17:37:46;;;;;;;0.20;0.10;;;;;;;;;;4995154;28;20630;-78
2023/03/18 17:40:13;;;;;;;0.20;0.10;;;;;;;;;;4984174;28;20050;-78
2023/03/18 17:42:39;;;;;;;0.20;0.10;;;;;;;;;;5000434;28;20096;-78
2023/03/18 17:45:11;;;;;;;0.20;0.00;;;;;;;;;;5008042;28;20513;-77
2023/03/18 17:47:37;;;;;;;0.20;0.10;;;;;;;;;;5007623;28;20045;-78
2023/03/18 17:50:03;;;;;;;0.20;0.10;;;;;;;;;;5003180;28;20211;-78
2023/03/18 17:52:30;;;;;;;0.20;0.00;;;;;;;;;;4984793;28;20052;-77
2023/03/18 17:54:56;;;;;;;0.20;0.08;;;;;;;;;;4999761;28;20053;-77
2023/03/18 17:57:22;;;;;;;0.20;0.10;;;;;;;;;;4996027;28;20046;-78
2023/03/18 17:59:48;;;;;;;0.20;0.10;;;;;;;;;;4984786;28;20117;-78
2023/03/18 18:02:19;;;;;;;0.20;0.10;;;;;;;;;;4990573;28;20101;-78
2023/03/18 18:04:45;;;;;;;0.20;0.10;;;;;;;;;;4984033;28;20034;-78
2023/03/18 18:07:19;;;;;;;0.65;0.43;;;;;;;;;;4972406;28;20069;-78
2023/03/18 18:09:45;;;;;;;0.20;0.00;;;;;;;;;;4990581;28;20045;-78
2023/03/18 18:12:22;;;;;;;0.20;0.00;;;;;;;;;;4993518;28;20045;-79
2023/03/18 18:14:48;;;;;;;0.20;0.00;;;;;;;;;;4995346;28;20034;-78
2023/03/18 18:17:15;;;;;;;0.20;0.10;;;;;;;;;;4980431;28;20041;-78
2023/03/18 18:19:41;;;;;;;0.20;0.10;;;;;;;;;;4982587;28;20063;-78
2023/03/18 18:22:15;;;;;;;0.20;0.08;;;;;;;;;;4990887;28;20041;-78
2023/03/18 18:24:43;;;;;;;0.20;0.00;;;;;;;;;;4998779;28;20052;-78
2023/03/18 18:27:11;;;;;;;0.20;0.00;;;;;;;;;;4995656;28;20046;-78
2023/03/18 18:29:38;;;;;;;0.20;0.10;;;;;;;;;;4995873;28;20045;-78
2023/03/18 18:32:04;;;;;;;0.20;0.00;;;;;;;;;;4989668;28;20042;-78
2023/03/18 18:34:30;;;;;;;0.20;0.00;;;;;;;;;;4995611;28;20391;-78
2023/03/18 18:36:57;;;;;;;0.20;0.10;;;;;;;;;;4977300;28;20038;-78
2023/03/18 18:39:23;;;;;;;0.20;0.00;;;;;;;;;;4995395;28;20539;-79
2023/03/18 18:41:50;;;;;;;0.20;0.10;;;;;;;;;;4975683;28;20483;-78
2023/03/18 18:44:17;;;;;;;0.20;0.00;;;;;;;;;;4997792;28;20499;-78
2023/03/18 18:46:43;;;;;;;0.20;0.10;;;;;;;;;;4972085;28;20154;-78
2023/03/18 18:49:21;;;;;;;0.20;0.10;;;;;;;;;;4977370;28;20152;-79
2023/03/18 18:51:54;;;;;;;0.20;0.00;;;;;;;;;;4972580;28;20128;-79
2023/03/18 18:54:20;;;;;;;0.28;0.28;;;;;;;;;;4989993;28;20095;-79
2023/03/18 18:56:47;;;;;;;0.20;0.10;;;;;;;;;;4993276;28;20033;-78
2023/03/18 18:59:32;;;;;;;0.20;0.08;;;;;;;;;;4980048;28;20696;-80
2023/03/18 19:01:59;;;;;;;0.20;0.10;;;;;;;;;;4988319;28;20034;-79
2023/03/18 19:04:26;;;;;;;0.20;0.10;;;;;;;;;;4995380;28;20073;-79
2023/03/18 19:06:52;;;;;;;0.20;0.10;;;;;;;;;;4993682;28;20041;-79
2023/03/18 19:09:23;;;;;;;0.20;0.00;;;;;;;;;;4977917;28;20495;-79
2023/03/18 19:11:50;;;;;;;0.20;0.10;;;;;;;;;;4992044;28;20049;-79
2023/03/18 19:14:23;;;;;;;0.20;0.00;;;;;;;;;;4994700;28;20179;-79
2023/03/18 19:16:49;;;;;;;;;;;;;;;;;;4991591;28;20053;-79
2023/03/18 19:19:17;;;;;;;0.20;0.00;;;;;;;;;;4979184;28;19972;-79
2023/03/18 19:21:43;;;;;;;0.32;0.17;;;;;;;;;;4992510;28;20042;-80
2023/03/18 19:24:31;;;;;;;0.20;0.00;;;9.90;99.90;;;;;;4985039;28;20046;-79
2023/03/18 19:26:58;;;;;;;0.20;0.10;;;;;;;;;;5000722;28;20077;-78
2023/03/18 19:29:24;;;;;;;0.20;0.10;;;;;;;;;;4996866;28;20046;-79
2023/03/18 19:31:51;;;;;;;0.20;0.20;;;;;;;;;;4999863;28;20125;-79
2023/03/18 19:34:18;;;;;;;0.20;0.10;;;;;;;;;;4998786;28;20046;-78
2023/03/18 19:36:47;;;;;;;0.20;0.10;;;;;;;;;;5001753;28;20502;-79
2023/03/18 19:39:14;;;;;;;0.20;0.13;;;;;;;;;;4996267;28;20485;-78
2023/03/18 19:41:41;;;;;;;0.20;0.03;;;;;;;;;;4982647;28;20552;-79
2023/03/18 19:44:20;;;;;;;0.20;0.10;;;;;;;;;;4989137;28;20056;-79
2023/03/18 19:46:47;;;;;;;0.20;0.03;;;;;;;;;;4998336;28;20074;-77
2023/03/18 19:49:18;;;;;;;0.20;0.00;;;;;;;;;;4997791;28;20096;-78
2023/03/18 19:51:45;;;;;;;0.20;0.10;;;;;;;;;;4995641;28;20038;-77
2023/03/18 19:54:23;;;;;;;0.20;0.03;;;;;;;;;;4996847;28;20053;-77
2023/03/18 19:56:51;;;;;;;0.20;0.10;;;;;;;;;;4977648;28;20116;-77
2023/03/18 19:59:21;;;;;;;0.20;0.00;;;;;;;;;;4993650;28;20040;-77
2023/03/18 20:01:48;;;;;;;0.20;0.00;;;;;;;;;;4988371;28;20039;-76
2023/03/18 20:04:15;;;;;;;0.20;0.00;;;;;;;;;;4982345;28;20042;-77
2023/03/18 20:06:41;;;;;;;0.20;0.10;;;;;;;;;;5000368;28;20065;-77
2023/03/18 20:09:07;;;;;;;0.20;0.10;;;;;;;;;;4999407;28;20117;-77
2023/03/18 20:11:34;;;;;;;0.30;0.22;;;;;;;;;;5000746;28;20069;-77
2023/03/18 20:14:00;;;;;;;0.20;0.10;;;;;;;;;;4995468;28;20192;-77
2023/03/18 20:16:28;;;;;;;0.20;0.10;;;;;;;;;;5000022;28;20045;-77
2023/03/18 20:18:54;;;;;;;0.35;0.30;;;;;;;;;;4997219;28;20550;-77
2023/03/18 20:21:26;;;;;;;0.20;0.00;;;;;;;;;;5000020;28;20143;-77
2023/03/18 20:23:53;;;;;;;0.20;0.10;;;;;;;;;;4998495;28;20038;-77
2023/03/18 20:26:21;;;;;;;0.30;0.20;;;;;;;;;;5002829;28;20502;-77
2023/03/18 20:28:52;;;;;;;0.20;0.10;;;;;;;;;;4983889;28;20038;-77
2023/03/18 20:31:18;;;;;;;0.20;0.10;;;;;;;;;;4996006;28;20103;-77
2023/03/18 20:33:44;;;;;;;0.20;0.10;;;;;;;;;;4997818;28;20128;-77
2023/03/18 20:36:14;;;;;;;0.20;0.10;;;;;;;;;;4996439;28;20491;-77
2023/03/18 20:38:41;;;;;;;0.20;0.10;;;;;;;;;;4986992;28;20061;-77
2023/03/18 20:41:07;;;;;;;0.20;0.00;;;;;;;;;;4997242;28;20083;-77
2023/03/18 20:43:33;;;;;;;0.20;0.10;;;;;;;;;;4998128;28;20739;-77
2023/03/18 20:46:00;;;;;;;0.20;0.10;;;;;;;;;;4985218;28;20091;-78
2023/03/18 20:48:27;;;;;;;0.20;0.00;;;;;;;;;;4998923;28;20504;-77
2023/03/18 20:50:54;;;;;;;0.20;0.10;;;;;;;;;;4997694;28;20752;-78
2023/03/18 20:53:24;;;;;;;0.20;0.10;;;;;;;;;;4997748;28;20100;-77
2023/03/18 20:55:51;;;;;;;0.20;0.10;;;;;;;;;;4995472;28;20124;-78
2023/03/18 20:58:21;;;;;;;0.20;0.00;;;;;;;;;;4997357;28;20173;-77
2023/03/18 21:00:47;;;;;;;0.20;0.10;;;;;;;;;;5000323;28;20566;-78
2023/03/18 21:03:21;;;;;;;0.20;0.00;;;;;;;;;;5006526;28;20383;-78
2023/03/18 21:05:47;;;;;;;0.20;0.10;;;;;;;;;;5002652;28;20486;-78
2023/03/18 21:08:13;;;;;;;0.20;0.00;;;;;;;;;;5003065;28;20069;-78
2023/03/18 21:10:39;;;;;;;0.20;0.10;;;;;;;;;;4998790;28;20119;-78
2023/03/18 21:13:26;;;;;;;0.40;0.22;;;;;;;;;;4993892;28;20242;-78
2023/03/18 21:15:52;;;;;;;0.20;0.00;;;;;;;;;;4981599;28;20164;-78
2023/03/18 21:18:18;;;;;;;0.20;0.10;;;;;;;;;;4996729;28;20387;-78
2023/03/18 21:20:44;;;;;;;2.83;1.02;;;;;;;;;;5001372;28;20395;-78
2023/03/18 21:23:21;;;;;;;0.20;0.10;;;;;;;;;;4994819;28;20041;-78
2023/03/18 21:25:48;;;;;;;0.20;0.00;;;;;;;;;;4974345;28;20412;-78
2023/03/18 21:28:15;;;;;;;0.20;0.10;;;;;;;;;;4995227;28;20049;-78
2023/03/18 21:30:42;;;;;;;0.20;0.10;;;;;;;;;;4982756;28;20208;-77
2023/03/18 21:33:28;;;;;;;0.20;0.10;;;;;;;;;;4993754;28;20562;-78
2023/03/18 21:35:58;;;;;;;0.20;0.08;;;;;;;;;;4992747;28;20753;-77
2023/03/18 21:38:25;;;;;;;0.32;0.10;;;;;;;;;;4994318;28;20044;-78
2023/03/18 21:40:51;;;;;;;0.20;0.00;;;;;;;;;;4991321;28;20124;-77
2023/03/18 21:43:24;;;;;;;0.20;0.10;;;;;;;;;;4992190;28;20441;-78
2023/03/18 21:45:50;;;;;;;0.20;0.00;;;;;;;;;;4988340;28;20038;-78
2023/03/18 21:48:16;;;;;;;0.20;0.10;;;;;;;;;;4989850;28;20878;-78
2023/03/18 21:50:43;;;;;;;0.20;0.10;;;;;;;;;;4991162;28;20131;-78
2023/03/18 21:53:15;;;;;;;0.20;0.20;;;;;;;;;;4987558;28;20453;-78
2023/03/18 21:55:41;;;;;;;0.20;0.03;;;;;;;;;;4986966;28;20050;-77